sensor_id;sensor_type;location;lat;lon;timestamp;temperature;humidity
9193;DHT22;4631;49.296;10.560;2022-10-15T00:02:00;13.80;99.90
9193;DHT22;4631;49.296;10.560;2022-10-15T00:04:28;13.80;99.90
9193;DHT22;4631;49.296;10.560;2022-10-15T00:06:55;13.80;99.90
9193;DHT22;4631;49.296;10.560;2022-10-15T00:09:22;13.80;99.90
9193;DHT22;4631;49.296;10.560;2022-10-15T00:11:50;13.80;99.90
9193;DHT22;4631;49.296;10.560;2022-10-15T00:14:16;13.80;99.90
9193;DHT22;4631;49.296;10.560;2022-10-15T00:16:43;13.80;99.90
9193;DHT22;4631;49.296;10.560;2022-10-15T00:19:10;13.80;99.90
9193;DHT22;4631;49.296;10.560;2022-10-15T00:21:37;13.80;99.90
9193;DHT22;4631;49.296;10.560;2022-10-15T00:24:04;13.80;99.90
9193;DHT22;4631;49.296;10.560;2022-10-15T00:26:31;13.80;99.90
9193;DHT22;4631;49.296;10.560;2022-10-15T00:28:59;13.70;99.90
9193;DHT22;4631;49.296;10.560;2022-10-15T00:31:27;13.80;99.90
9193;DHT22;4631;49.296;10.560;2022-10-15T00:33:54;13.80;99.90
9193;DHT22;4631;49.296;10.560;2022-10-15T00:36:22;13.80;99.90
9193;DHT22;4631;49.296;10.560;2022-10-15T00:38:49;13.80;99.90
9193;DHT22;4631;49.296;10.560;2022-10-15T00:41:17;13.80;99.90
9193;DHT22;4631;49.296;10.560;2022-10-15T00:43:44;13.80;99.90
9193;DHT22;4631;49.296;10.560;2022-10-15T00:46:16;13.80;99.90
9193;DHT22;4631;49.296;10.560;2022-10-15T00:48:43;13.80;99.90
9193;DHT22;4631;49.296;10.560;2022-10-15T00:51:11;13.80;99.90
9193;DHT22;4631;49.296;10.560;2022-10-15T00:53:38;13.80;99.90
9193;DHT22;4631;49.296;10.560;2022-10-15T00:56:05;13.70;99.90
9193;DHT22;4631;49.296;10.560;2022-10-15T00:58:31;13.80;99.90
9193;DHT22;4631;49.296;10.560;2022-10-15T01:00:59;13.80;99.90
9193;DHT22;4631;49.296;10.560;2022-10-15T01:03:27;13.80;99.90
9193;DHT22;4631;49.296;10.560;2022-10-15T01:05:54;13.70;99.90
9193;DHT22;4631;49.296;10.560;2022-10-15T01:08:21;13.80;99.90
9193;DHT22;4631;49.296;10.560;2022-10-15T01:10:49;13.80;99.90
9193;DHT22;4631;49.296;10.560;2022-10-15T01:13:21;13.80;99.90
9193;DHT22;4631;49.296;10.560;2022-10-15T01:15:49;13.80;99.90
9193;DHT22;4631;49.296;10.560;2022-10-15T01:18:20;13.80;99.90
9193;DHT22;4631;49.296;10.560;2022-10-15T01:20:54;13.80;99.90
9193;DHT22;4631;49.296;10.560;2022-10-15T01:26:15;13.80;99.90
9193;DHT22;4631;49.296;10.560;2022-10-15T01:28:47;13.80;99.90
9193;DHT22;4631;49.296;10.560;2022-10-15T01:31:20;13.90;99.90
9193;DHT22;4631;49.296;10.560;2022-10-15T01:33:48;13.80;99.90
9193;DHT22;4631;49.296;10.560;2022-10-15T01:36:18;13.80;99.90
9193;DHT22;4631;49.296;10.560;2022-10-15T01:38:50;13.80;99.90
9193;DHT22;4631;49.296;10.560;2022-10-15T01:41:21;13.80;99.90
9193;DHT22;4631;49.296;10.560;2022-10-15T01:43:51;13.90;99.90
9193;DHT22;4631;49.296;10.560;2022-10-15T01:46:25;13.90;99.90
9193;DHT22;4631;49.296;10.560;2022-10-15T01:48:53;13.80;99.90
9193;DHT22;4631;49.296;10.560;2022-10-15T01:51:21;13.90;99.90
9193;DHT22;4631;49.296;10.560;2022-10-15T01:53:49;13.80;99.90
9193;DHT22;4631;49.296;10.560;2022-10-15T01:56:17;13.90;99.90
9193;DHT22;4631;49.296;10.560;2022-10-15T01:58:45;13.80;99.90
9193;DHT22;4631;49.296;10.560;2022-10-15T02:01:13;13.90;99.90
9193;DHT22;4631;49.296;10.560;2022-10-15T02:03:45;13.80;99.90
9193;DHT22;4631;49.296;10.560;2022-10-15T02:06:13;13.80;99.90
9193;DHT22;4631;49.296;10.560;2022-10-15T02:08:43;13.80;99.90
9193;DHT22;4631;49.296;10.560;2022-10-15T02:11:11;13.90;99.90
9193;DHT22;4631;49.296;10.560;2022-10-15T02:13:40;13.90;99.90
9193;DHT22;4631;49.296;10.560;2022-10-15T02:16:11;13.90;99.90
9193;DHT22;4631;49.296;10.560;2022-10-15T02:18:40;13.90;99.90
9193;DHT22;4631;49.296;10.560;2022-10-15T02:21:11;13.90;99.90
9193;DHT22;4631;49.296;10.560;2022-10-15T02:23:40;13.90;99.90
9193;DHT22;4631;49.296;10.560;2022-10-15T02:26:10;13.90;99.90
9193;DHT22;4631;49.296;10.560;2022-10-15T02:28:39;13.90;99.90
9193;DHT22;4631;49.296;10.560;2022-10-15T02:31:07;13.80;99.90
9193;DHT22;4631;49.296;10.560;2022-10-15T02:33:35;13.90;99.90
9193;DHT22;4631;49.296;10.560;2022-10-15T02:36:03;13.90;99.90
9193;DHT22;4631;49.296;10.560;2022-10-15T02:38:31;13.90;99.90
9193;DHT22;4631;49.296;10.560;2022-10-15T02:40:58;13.90;99.90
9193;DHT22;4631;49.296;10.560;2022-10-15T02:43:25;13.90;99.90
9193;DHT22;4631;49.296;10.560;2022-10-15T02:45:52;13.90;99.90
9193;DHT22;4631;49.296;10.560;2022-10-15T02:48:18;13.90;99.90
9193;DHT22;4631;49.296;10.560;2022-10-15T02:50:45;13.90;99.90
9193;DHT22;4631;49.296;10.560;2022-10-15T02:53:12;13.90;99.90
9193;DHT22;4631;49.296;10.560;2022-10-15T02:55:40;13.90;99.90
9193;DHT22;4631;49.296;10.560;2022-10-15T02:58:06;13.90;99.90
9193;DHT22;4631;49.296;10.560;2022-10-15T03:00:33;13.90;99.90
9193;DHT22;4631;49.296;10.560;2022-10-15T03:02:59;13.90;99.90
9193;DHT22;4631;49.296;10.560;2022-10-15T03:05:26;13.90;99.90
9193;DHT22;4631;49.296;10.560;2022-10-15T03:07:53;13.90;99.90
9193;DHT22;4631;49.296;10.560;2022-10-15T03:10:19;13.80;99.90
9193;DHT22;4631;49.296;10.560;2022-10-15T03:12:47;13.90;99.90
9193;DHT22;4631;49.296;10.560;2022-10-15T03:15:14;13.90;99.90
9193;DHT22;4631;49.296;10.560;2022-10-15T03:17:41;13.90;99.90
9193;DHT22;4631;49.296;10.560;2022-10-15T03:20:07;13.90;99.90
9193;DHT22;4631;49.296;10.560;2022-10-15T03:22:34;13.90;99.90
9193;DHT22;4631;49.296;10.560;2022-10-15T03:25:01;13.90;99.90
9193;DHT22;4631;49.296;10.560;2022-10-15T03:27:27;13.90;99.90
9193;DHT22;4631;49.296;10.560;2022-10-15T03:29:55;14.00;99.90
9193;DHT22;4631;49.296;10.560;2022-10-15T03:32:22;13.90;99.90
9193;DHT22;4631;49.296;10.560;2022-10-15T03:34:48;14.00;99.90
9193;DHT22;4631;49.296;10.560;2022-10-15T03:37:15;14.00;99.90
9193;DHT22;4631;49.296;10.560;2022-10-15T03:39:42;14.00;99.90
9193;DHT22;4631;49.296;10.560;2022-10-15T03:42:08;14.00;99.90
9193;DHT22;4631;49.296;10.560;2022-10-15T03:44:35;14.00;99.90
9193;DHT22;4631;49.296;10.560;2022-10-15T03:47:03;14.00;99.90
9193;DHT22;4631;49.296;10.560;2022-10-15T03:49:29;14.00;99.90
9193;DHT22;4631;49.296;10.560;2022-10-15T03:51:56;14.00;99.90
9193;DHT22;4631;49.296;10.560;2022-10-15T03:54:23;14.00;99.90
9193;DHT22;4631;49.296;10.560;2022-10-15T03:56:49;14.00;99.90
9193;DHT22;4631;49.296;10.560;2022-10-15T03:59:16;14.00;99.90
9193;DHT22;4631;49.296;10.560;2022-10-15T04:01:42;14.00;99.90
9193;DHT22;4631;49.296;10.560;2022-10-15T04:04:10;14.00;99.90
9193;DHT22;4631;49.296;10.560;2022-10-15T04:06:37;14.00;99.90
9193;DHT22;4631;49.296;10.560;2022-10-15T04:09:04;14.00;99.90
9193;DHT22;4631;49.296;10.560;2022-10-15T04:11:31;14.00;99.90
9193;DHT22;4631;49.296;10.560;2022-10-15T04:13:57;14.10;99.90
9193;DHT22;4631;49.296;10.560;2022-10-15T04:16:24;14.10;99.90
9193;DHT22;4631;49.296;10.560;2022-10-15T04:18:50;14.10;99.90
9193;DHT22;4631;49.296;10.560;2022-10-15T04:21:18;14.10;99.90
9193;DHT22;4631;49.296;10.560;2022-10-15T04:23:45;14.10;99.90
9193;DHT22;4631;49.296;10.560;2022-10-15T04:26:12;14.10;99.90
9193;DHT22;4631;49.296;10.560;2022-10-15T04:28:39;14.10;99.90
9193;DHT22;4631;49.296;10.560;2022-10-15T04:31:05;14.10;99.90
9193;DHT22;4631;49.296;10.560;2022-10-15T04:33:32;14.10;99.90
9193;DHT22;4631;49.296;10.560;2022-10-15T04:35:59;14.10;99.90
9193;DHT22;4631;49.296;10.560;2022-10-15T04:38:27;14.10;99.90
9193;DHT22;4631;49.296;10.560;2022-10-15T04:40:58;14.10;99.90
9193;DHT22;4631;49.296;10.560;2022-10-15T04:43:25;14.20;99.90
9193;DHT22;4631;49.296;10.560;2022-10-15T04:45:54;14.20;99.90
9193;DHT22;4631;49.296;10.560;2022-10-15T04:48:21;14.10;99.90
9193;DHT22;4631;49.296;10.560;2022-10-15T04:50:47;14.20;99.90
9193;DHT22;4631;49.296;10.560;2022-10-15T04:53:14;14.20;99.90
9193;DHT22;4631;49.296;10.560;2022-10-15T04:55:42;14.20;99.90
9193;DHT22;4631;49.296;10.560;2022-10-15T04:58:08;14.20;99.90
9193;DHT22;4631;49.296;10.560;2022-10-15T05:00:35;14.20;99.90
9193;DHT22;4631;49.296;10.560;2022-10-15T05:03:02;14.20;99.90
9193;DHT22;4631;49.296;10.560;2022-10-15T05:05:30;14.20;99.90
9193;DHT22;4631;49.296;10.560;2022-10-15T05:07:58;14.30;99.90
9193;DHT22;4631;49.296;10.560;2022-10-15T05:10:24;14.30;99.90
9193;DHT22;4631;49.296;10.560;2022-10-15T05:12:52;14.30;99.90
9193;DHT22;4631;49.296;10.560;2022-10-15T05:15:19;14.30;99.90
9193;DHT22;4631;49.296;10.560;2022-10-15T05:17:46;14.40;99.90
9193;DHT22;4631;49.296;10.560;2022-10-15T05:20:12;14.40;99.90
9193;DHT22;4631;49.296;10.560;2022-10-15T05:22:39;14.40;99.90
9193;DHT22;4631;49.296;10.560;2022-10-15T05:25:06;14.40;99.90
9193;DHT22;4631;49.296;10.560;2022-10-15T05:27:33;14.40;99.90
9193;DHT22;4631;49.296;10.560;2022-10-15T05:30:01;14.40;99.90
9193;DHT22;4631;49.296;10.560;2022-10-15T05:32:28;14.40;99.90
9193;DHT22;4631;49.296;10.560;2022-10-15T05:34:55;14.50;99.90
9193;DHT22;4631;49.296;10.560;2022-10-15T05:37:22;14.50;99.90
9193;DHT22;4631;49.296;10.560;2022-10-15T05:39:48;14.50;99.90
9193;DHT22;4631;49.296;10.560;2022-10-15T05:42:15;14.50;99.90
9193;DHT22;4631;49.296;10.560;2022-10-15T05:44:42;14.50;99.90
9193;DHT22;4631;49.296;10.560;2022-10-15T05:47:09;14.50;99.90
9193;DHT22;4631;49.296;10.560;2022-10-15T05:49:37;14.60;99.90
9193;DHT22;4631;49.296;10.560;2022-10-15T05:52:03;14.60;99.90
9193;DHT22;4631;49.296;10.560;2022-10-15T05:54:30;14.60;99.90
9193;DHT22;4631;49.296;10.560;2022-10-15T05:56:56;14.60;99.90
9193;DHT22;4631;49.296;10.560;2022-10-15T05:59:23;14.60;99.90
9193;DHT22;4631;49.296;10.560;2022-10-15T06:01:49;14.70;99.90
9193;DHT22;4631;49.296;10.560;2022-10-15T06:04:17;14.60;99.90
9193;DHT22;4631;49.296;10.560;2022-10-15T06:06:44;14.70;99.90
9193;DHT22;4631;49.296;10.560;2022-10-15T06:09:11;14.70;99.90
9193;DHT22;4631;49.296;10.560;2022-10-15T06:11:37;14.70;99.90
9193;DHT22;4631;49.296;10.560;2022-10-15T06:14:04;14.70;99.90
9193;DHT22;4631;49.296;10.560;2022-10-15T06:16:31;14.70;99.90
9193;DHT22;4631;49.296;10.560;2022-10-15T06:18:58;14.70;99.90
9193;DHT22;4631;49.296;10.560;2022-10-15T06:21:26;14.80;99.90
9193;DHT22;4631;49.296;10.560;2022-10-15T06:23:52;14.70;99.90
9193;DHT22;4631;49.296;10.560;2022-10-15T06:26:19;14.70;99.90
9193;DHT22;4631;49.296;10.560;2022-10-15T06:28:45;14.70;99.90
9193;DHT22;4631;49.296;10.560;2022-10-15T06:31:12;14.70;99.90
9193;DHT22;4631;49.296;10.560;2022-10-15T06:33:39;14.70;99.90
9193;DHT22;4631;49.296;10.560;2022-10-15T06:36:06;14.80;99.90
9193;DHT22;4631;49.296;10.560;2022-10-15T06:38:34;14.80;99.90
9193;DHT22;4631;49.296;10.560;2022-10-15T06:41:02;14.80;99.90
9193;DHT22;4631;49.296;10.560;2022-10-15T06:43:29;14.80;99.90
9193;DHT22;4631;49.296;10.560;2022-10-15T06:45:57;14.80;99.90
9193;DHT22;4631;49.296;10.560;2022-10-15T06:48:23;14.80;99.90
9193;DHT22;4631;49.296;10.560;2022-10-15T06:50:50;14.80;99.90
9193;DHT22;4631;49.296;10.560;2022-10-15T06:53:16;14.90;99.90
9193;DHT22;4631;49.296;10.560;2022-10-15T06:55:44;14.80;99.90
9193;DHT22;4631;49.296;10.560;2022-10-15T06:58:11;14.90;99.90
9193;DHT22;4631;49.296;10.560;2022-10-15T07:00:38;14.90;99.90
9193;DHT22;4631;49.296;10.560;2022-10-15T07:03:04;14.90;99.90
9193;DHT22;4631;49.296;10.560;2022-10-15T07:05:31;14.90;99.90
9193;DHT22;4631;49.296;10.560;2022-10-15T07:07:58;15.00;99.90
9193;DHT22;4631;49.296;10.560;2022-10-15T07:10:25;15.00;99.90
9193;DHT22;4631;49.296;10.560;2022-10-15T07:12:53;15.00;99.90
9193;DHT22;4631;49.296;10.560;2022-10-15T07:15:20;15.00;99.90
9193;DHT22;4631;49.296;10.560;2022-10-15T07:17:47;15.00;99.90
9193;DHT22;4631;49.296;10.560;2022-10-15T07:20:14;15.10;99.90
9193;DHT22;4631;49.296;10.560;2022-10-15T07:22:40;15.10;99.90
9193;DHT22;4631;49.296;10.560;2022-10-15T07:25:07;15.10;99.90
9193;DHT22;4631;49.296;10.560;2022-10-15T07:27:35;15.10;99.90
9193;DHT22;4631;49.296;10.560;2022-10-15T07:30:03;15.10;99.90
9193;DHT22;4631;49.296;10.560;2022-10-15T07:32:30;15.10;99.90
9193;DHT22;4631;49.296;10.560;2022-10-15T07:34:57;15.10;99.90
9193;DHT22;4631;49.296;10.560;2022-10-15T07:37:24;15.10;99.90
9193;DHT22;4631;49.296;10.560;2022-10-15T07:39:50;15.10;99.90
9193;DHT22;4631;49.296;10.560;2022-10-15T07:42:17;15.10;99.90
9193;DHT22;4631;49.296;10.560;2022-10-15T07:44:44;15.20;99.90
9193;DHT22;4631;49.296;10.560;2022-10-15T07:47:12;15.20;99.90
9193;DHT22;4631;49.296;10.560;2022-10-15T07:49:39;15.20;99.90
9193;DHT22;4631;49.296;10.560;2022-10-15T07:52:05;15.20;99.90
9193;DHT22;4631;49.296;10.560;2022-10-15T07:54:33;15.20;99.90
9193;DHT22;4631;49.296;10.560;2022-10-15T07:57:00;15.20;99.90
9193;DHT22;4631;49.296;10.560;2022-10-15T07:59:26;15.20;99.90
9193;DHT22;4631;49.296;10.560;2022-10-15T08:01:53;15.20;99.90
9193;DHT22;4631;49.296;10.560;2022-10-15T08:04:21;15.20;99.90
9193;DHT22;4631;49.296;10.560;2022-10-15T08:06:47;15.20;99.90
9193;DHT22;4631;49.296;10.560;2022-10-15T08:09:14;15.20;99.90
9193;DHT22;4631;49.296;10.560;2022-10-15T08:11:41;15.20;99.90
9193;DHT22;4631;49.296;10.560;2022-10-15T08:14:07;15.20;99.90
9193;DHT22;4631;49.296;10.560;2022-10-15T08:16:34;15.20;99.90
9193;DHT22;4631;49.296;10.560;2022-10-15T08:19:01;15.20;99.90
9193;DHT22;4631;49.296;10.560;2022-10-15T08:21:29;15.20;99.90
9193;DHT22;4631;49.296;10.560;2022-10-15T08:23:55;15.20;99.90
9193;DHT22;4631;49.296;10.560;2022-10-15T08:26:22;15.20;99.90
9193;DHT22;4631;49.296;10.560;2022-10-15T08:28:50;15.20;99.90
9193;DHT22;4631;49.296;10.560;2022-10-15T08:31:17;15.30;99.90
9193;DHT22;4631;49.296;10.560;2022-10-15T08:33:44;15.30;99.90
9193;DHT22;4631;49.296;10.560;2022-10-15T08:36:11;15.40;99.90
9193;DHT22;4631;49.296;10.560;2022-10-15T08:38:39;15.40;99.90
9193;DHT22;4631;49.296;10.560;2022-10-15T08:41:13;15.50;99.90
9193;DHT22;4631;49.296;10.560;2022-10-15T08:43:42;15.50;99.90
9193;DHT22;4631;49.296;10.560;2022-10-15T08:46:13;15.60;99.90
9193;DHT22;4631;49.296;10.560;2022-10-15T08:48:43;15.60;99.90
9193;DHT22;4631;49.296;10.560;2022-10-15T08:51:12;15.70;99.90
9193;DHT22;4631;49.296;10.560;2022-10-15T08:53:41;15.70;99.90
9193;DHT22;4631;49.296;10.560;2022-10-15T08:56:12;15.70;99.90
9193;DHT22;4631;49.296;10.560;2022-10-15T08:58:42;15.80;99.90
9193;DHT22;4631;49.296;10.560;2022-10-15T09:01:12;15.80;99.90
9193;DHT22;4631;49.296;10.560;2022-10-15T09:03:43;15.70;99.90
9193;DHT22;4631;49.296;10.560;2022-10-15T09:06:17;15.70;99.90
9193;DHT22;4631;49.296;10.560;2022-10-15T09:08:49;15.70;99.90
9193;DHT22;4631;49.296;10.560;2022-10-15T09:11:18;15.70;99.90
9193;DHT22;4631;49.296;10.560;2022-10-15T09:13:46;15.70;99.90
9193;DHT22;4631;49.296;10.560;2022-10-15T09:16:14;15.70;99.90
9193;DHT22;4631;49.296;10.560;2022-10-15T09:18:43;15.70;99.90
9193;DHT22;4631;49.296;10.560;2022-10-15T09:21:10;15.60;99.90
9193;DHT22;4631;49.296;10.560;2022-10-15T09:23:37;15.60;99.90
9193;DHT22;4631;49.296;10.560;2022-10-15T09:26:08;15.60;99.90
9193;DHT22;4631;49.296;10.560;2022-10-15T09:28:42;15.60;99.90
9193;DHT22;4631;49.296;10.560;2022-10-15T09:31:11;15.60;99.90
9193;DHT22;4631;49.296;10.560;2022-10-15T09:33:40;15.60;99.90
9193;DHT22;4631;49.296;10.560;2022-10-15T09:36:20;15.60;99.90
9193;DHT22;4631;49.296;10.560;2022-10-15T09:38:55;15.60;99.90
9193;DHT22;4631;49.296;10.560;2022-10-15T09:41:27;15.60;99.90
9193;DHT22;4631;49.296;10.560;2022-10-15T09:43:55;15.70;99.90
9193;DHT22;4631;49.296;10.560;2022-10-15T09:46:23;15.70;99.90
9193;DHT22;4631;49.296;10.560;2022-10-15T09:48:50;15.80;99.90
9193;DHT22;4631;49.296;10.560;2022-10-15T09:51:20;15.80;99.90
9193;DHT22;4631;49.296;10.560;2022-10-15T09:53:51;15.80;99.90
9193;DHT22;4631;49.296;10.560;2022-10-15T09:56:21;15.80;99.90
9193;DHT22;4631;49.296;10.560;2022-10-15T09:58:50;15.90;99.90
9193;DHT22;4631;49.296;10.560;2022-10-15T10:01:18;15.80;99.90
9193;DHT22;4631;49.296;10.560;2022-10-15T10:03:45;15.90;99.90
9193;DHT22;4631;49.296;10.560;2022-10-15T10:06:14;16.00;99.90
9193;DHT22;4631;49.296;10.560;2022-10-15T10:08:45;16.00;99.90
9193;DHT22;4631;49.296;10.560;2022-10-15T10:11:13;16.00;99.90
9193;DHT22;4631;49.296;10.560;2022-10-15T10:13:40;16.00;99.90
9193;DHT22;4631;49.296;10.560;2022-10-15T10:16:11;16.00;99.90
9193;DHT22;4631;49.296;10.560;2022-10-15T10:18:39;16.00;99.90
9193;DHT22;4631;49.296;10.560;2022-10-15T10:21:19;16.00;99.90
9193;DHT22;4631;49.296;10.560;2022-10-15T10:23:46;16.10;99.90
9193;DHT22;4631;49.296;10.560;2022-10-15T10:26:12;16.20;99.90
9193;DHT22;4631;49.296;10.560;2022-10-15T10:28:39;16.20;99.90
9193;DHT22;4631;49.296;10.560;2022-10-15T10:31:08;16.30;99.90
9193;DHT22;4631;49.296;10.560;2022-10-15T10:33:43;16.40;99.90
9193;DHT22;4631;49.296;10.560;2022-10-15T10:36:17;16.50;99.90
9193;DHT22;4631;49.296;10.560;2022-10-15T10:38:53;16.50;99.90
9193;DHT22;4631;49.296;10.560;2022-10-15T10:41:20;16.60;99.90
9193;DHT22;4631;49.296;10.560;2022-10-15T10:43:51;16.70;99.90
9193;DHT22;4631;49.296;10.560;2022-10-15T10:46:19;16.70;99.90
9193;DHT22;4631;49.296;10.560;2022-10-15T10:48:49;16.80;99.90
9193;DHT22;4631;49.296;10.560;2022-10-15T10:51:17;17.00;99.90
9193;DHT22;4631;49.296;10.560;2022-10-15T10:53:49;17.10;99.90
9193;DHT22;4631;49.296;10.560;2022-10-15T10:56:17;17.20;99.90
9193;DHT22;4631;49.296;10.560;2022-10-15T10:58:45;17.30;99.90
9193;DHT22;4631;49.296;10.560;2022-10-15T11:01:13;17.50;99.90
9193;DHT22;4631;49.296;10.560;2022-10-15T11:03:40;17.60;99.90
9193;DHT22;4631;49.296;10.560;2022-10-15T11:06:16;17.60;99.90
9193;DHT22;4631;49.296;10.560;2022-10-15T11:08:48;17.70;99.90
9193;DHT22;4631;49.296;10.560;2022-10-15T11:11:19;17.60;99.90
9193;DHT22;4631;49.296;10.560;2022-10-15T11:13:49;17.50;99.90
9193;DHT22;4631;49.296;10.560;2022-10-15T11:16:25;17.50;99.90
9193;DHT22;4631;49.296;10.560;2022-10-15T11:18:57;17.40;99.90
9193;DHT22;4631;49.296;10.560;2022-10-15T11:21:30;17.40;99.90
9193;DHT22;4631;49.296;10.560;2022-10-15T11:24:04;17.40;99.90
9193;DHT22;4631;49.296;10.560;2022-10-15T11:26:36;17.50;99.90
9193;DHT22;4631;49.296;10.560;2022-10-15T11:29:08;17.50;99.90
9193;DHT22;4631;49.296;10.560;2022-10-15T11:31:38;17.50;99.90
9193;DHT22;4631;49.296;10.560;2022-10-15T11:34:13;17.50;99.90
9193;DHT22;4631;49.296;10.560;2022-10-15T11:36:47;17.60;99.90
9193;DHT22;4631;49.296;10.560;2022-10-15T11:39:23;17.70;99.90
9193;DHT22;4631;49.296;10.560;2022-10-15T11:41:53;17.70;99.90
9193;DHT22;4631;49.296;10.560;2022-10-15T11:44:25;17.70;99.90
9193;DHT22;4631;49.296;10.560;2022-10-15T11:46:58;17.70;99.90
9193;DHT22;4631;49.296;10.560;2022-10-15T11:49:29;17.60;99.90
9193;DHT22;4631;49.296;10.560;2022-10-15T11:52:04;17.60;99.90
9193;DHT22;4631;49.296;10.560;2022-10-15T11:54:34;17.50;99.90
9193;DHT22;4631;49.296;10.560;2022-10-15T11:57:02;17.40;99.90
9193;DHT22;4631;49.296;10.560;2022-10-15T11:59:31;17.40;99.90
9193;DHT22;4631;49.296;10.560;2022-10-15T12:01:59;17.30;99.90
9193;DHT22;4631;49.296;10.560;2022-10-15T12:04:29;17.20;99.90
9193;DHT22;4631;49.296;10.560;2022-10-15T12:06:58;17.10;99.90
9193;DHT22;4631;49.296;10.560;2022-10-15T12:09:28;17.10;99.90
9193;DHT22;4631;49.296;10.560;2022-10-15T12:11:58;17.10;99.90
9193;DHT22;4631;49.296;10.560;2022-10-15T12:14:29;17.10;99.90
9193;DHT22;4631;49.296;10.560;2022-10-15T12:16:58;17.00;99.90
9193;DHT22;4631;49.296;10.560;2022-10-15T12:19:28;17.00;99.90
9193;DHT22;4631;49.296;10.560;2022-10-15T12:22:01;17.00;99.90
9193;DHT22;4631;49.296;10.560;2022-10-15T12:24:51;17.10;99.90
9193;DHT22;4631;49.296;10.560;2022-10-15T12:27:29;17.20;99.90
9193;DHT22;4631;49.296;10.560;2022-10-15T12:32:44;17.90;99.90
9193;DHT22;4631;49.296;10.560;2022-10-15T12:35:19;18.10;99.90
9193;DHT22;4631;49.296;10.560;2022-10-15T12:37:47;18.30;99.90
9193;DHT22;4631;49.296;10.560;2022-10-15T12:40:23;18.30;99.90
9193;DHT22;4631;49.296;10.560;2022-10-15T12:42:51;18.40;99.90
9193;DHT22;4631;49.296;10.560;2022-10-15T12:45:19;18.30;99.90
9193;DHT22;4631;49.296;10.560;2022-10-15T12:47:47;18.20;99.90
9193;DHT22;4631;49.296;10.560;2022-10-15T12:50:16;18.20;99.90
9193;DHT22;4631;49.296;10.560;2022-10-15T12:52:50;18.10;99.90
9193;DHT22;4631;49.296;10.560;2022-10-15T12:55:26;18.20;99.90
9193;DHT22;4631;49.296;10.560;2022-10-15T12:57:54;18.20;99.90
9193;DHT22;4631;49.296;10.560;2022-10-15T13:00:34;18.30;99.90
9193;DHT22;4631;49.296;10.560;2022-10-15T13:03:08;18.40;99.90
9193;DHT22;4631;49.296;10.560;2022-10-15T13:05:36;18.40;99.90
9193;DHT22;4631;49.296;10.560;2022-10-15T13:08:04;18.30;99.90
9193;DHT22;4631;49.296;10.560;2022-10-15T13:10:38;18.30;99.90
9193;DHT22;4631;49.296;10.560;2022-10-15T13:13:06;18.20;99.90
9193;DHT22;4631;49.296;10.560;2022-10-15T13:15:37;18.20;99.90
9193;DHT22;4631;49.296;10.560;2022-10-15T13:18:05;18.30;99.90
9193;DHT22;4631;49.296;10.560;2022-10-15T13:20:33;18.50;99.90
9193;DHT22;4631;49.296;10.560;2022-10-15T13:23:08;18.70;99.90
9193;DHT22;4631;49.296;10.560;2022-10-15T13:25:35;18.80;99.90
9193;DHT22;4631;49.296;10.560;2022-10-15T13:28:28;18.80;99.90
9193;DHT22;4631;49.296;10.560;2022-10-15T13:30:49;18.70;99.90
9193;DHT22;4631;49.296;10.560;2022-10-15T13:33:17;18.70;99.90
9193;DHT22;4631;49.296;10.560;2022-10-15T13:35:44;18.70;99.90
9193;DHT22;4631;49.296;10.560;2022-10-15T13:38:13;18.70;99.90
9193;DHT22;4631;49.296;10.560;2022-10-15T13:40:45;18.80;99.90
9193;DHT22;4631;49.296;10.560;2022-10-15T13:43:15;19.00;99.90
9193;DHT22;4631;49.296;10.560;2022-10-15T13:45:45;19.10;99.90
9193;DHT22;4631;49.296;10.560;2022-10-15T13:48:11;19.30;99.90
9193;DHT22;4631;49.296;10.560;2022-10-15T13:50:38;19.50;99.90
9193;DHT22;4631;49.296;10.560;2022-10-15T13:53:09;19.70;99.90
9193;DHT22;4631;49.296;10.560;2022-10-15T13:55:38;19.80;99.90
9193;DHT22;4631;49.296;10.560;2022-10-15T13:58:14;20.00;99.90
9193;DHT22;4631;49.296;10.560;2022-10-15T14:00:47;19.90;99.90
9193;DHT22;4631;49.296;10.560;2022-10-15T14:03:15;19.80;99.90
9193;DHT22;4631;49.296;10.560;2022-10-15T14:05:42;19.60;99.90
9193;DHT22;4631;49.296;10.560;2022-10-15T14:08:13;19.40;99.90
9193;DHT22;4631;49.296;10.560;2022-10-15T14:10:40;19.20;99.90
9193;DHT22;4631;49.296;10.560;2022-10-15T14:13:07;19.10;99.90
9193;DHT22;4631;49.296;10.560;2022-10-15T14:15:45;19.00;99.90
9193;DHT22;4631;49.296;10.560;2022-10-15T14:18:13;18.90;99.90
9193;DHT22;4631;49.296;10.560;2022-10-15T14:20:42;18.90;99.90
9193;DHT22;4631;49.296;10.560;2022-10-15T14:23:13;18.90;99.90
9193;DHT22;4631;49.296;10.560;2022-10-15T14:25:40;18.80;99.90
9193;DHT22;4631;49.296;10.560;2022-10-15T14:28:14;18.90;99.90
9193;DHT22;4631;49.296;10.560;2022-10-15T14:30:42;18.90;99.90
9193;DHT22;4631;49.296;10.560;2022-10-15T14:36:03;19.10;99.90
9193;DHT22;4631;49.296;10.560;2022-10-15T14:38:29;19.00;99.90
9193;DHT22;4631;49.296;10.560;2022-10-15T14:40:56;18.90;99.90
9193;DHT22;4631;49.296;10.560;2022-10-15T14:43:27;18.70;99.90
9193;DHT22;4631;49.296;10.560;2022-10-15T14:45:55;18.60;99.90
9193;DHT22;4631;49.296;10.560;2022-10-15T14:48:24;18.50;99.90
9193;DHT22;4631;49.296;10.560;2022-10-15T14:50:51;18.40;99.90
9193;DHT22;4631;49.296;10.560;2022-10-15T14:53:20;18.40;99.90
9193;DHT22;4631;49.296;10.560;2022-10-15T14:55:50;18.30;99.90
9193;DHT22;4631;49.296;10.560;2022-10-15T14:58:18;18.30;99.90
9193;DHT22;4631;49.296;10.560;2022-10-15T15:00:45;18.30;99.90
9193;DHT22;4631;49.296;10.560;2022-10-15T15:03:14;18.20;99.90
9193;DHT22;4631;49.296;10.560;2022-10-15T15:05:44;18.20;99.90
9193;DHT22;4631;49.296;10.560;2022-10-15T15:08:11;18.20;99.90
9193;DHT22;4631;49.296;10.560;2022-10-15T15:10:40;18.10;99.90
9193;DHT22;4631;49.296;10.560;2022-10-15T15:13:09;18.10;99.90
9193;DHT22;4631;49.296;10.560;2022-10-15T15:15:36;17.90;99.90
9193;DHT22;4631;49.296;10.560;2022-10-15T15:18:06;17.90;99.90
9193;DHT22;4631;49.296;10.560;2022-10-15T15:20:33;17.80;99.90
9193;DHT22;4631;49.296;10.560;2022-10-15T15:23:00;17.80;99.90
9193;DHT22;4631;49.296;10.560;2022-10-15T15:25:28;17.70;99.90
9193;DHT22;4631;49.296;10.560;2022-10-15T15:27:56;17.70;99.90
9193;DHT22;4631;49.296;10.560;2022-10-15T15:30:23;17.70;99.90
9193;DHT22;4631;49.296;10.560;2022-10-15T15:32:50;17.60;99.90
9193;DHT22;4631;49.296;10.560;2022-10-15T15:35:18;17.50;99.90
9193;DHT22;4631;49.296;10.560;2022-10-15T15:37:46;17.40;99.90
9193;DHT22;4631;49.296;10.560;2022-10-15T15:40:12;17.40;99.90
9193;DHT22;4631;49.296;10.560;2022-10-15T15:42:39;17.30;99.90
9193;DHT22;4631;49.296;10.560;2022-10-15T15:45:10;17.20;99.90
9193;DHT22;4631;49.296;10.560;2022-10-15T15:47:40;17.20;99.90
9193;DHT22;4631;49.296;10.560;2022-10-15T15:50:07;17.20;99.90
9193;DHT22;4631;49.296;10.560;2022-10-15T15:52:33;17.20;99.90
9193;DHT22;4631;49.296;10.560;2022-10-15T15:55:00;17.20;99.90
9193;DHT22;4631;49.296;10.560;2022-10-15T15:57:26;17.10;99.90
9193;DHT22;4631;49.296;10.560;2022-10-15T15:59:53;17.10;99.90
9193;DHT22;4631;49.296;10.560;2022-10-15T16:02:21;17.20;99.90